Overview Statistics Trail Chart Weather Telemetry Raw packets
 

This is the latest recevied weather packets stored in our database for station/object OE6JUE. If no packets are shown the sender has not sent any weather packets the latest 10 day(s).

<< 33 34 35 36 37 38 39 >>
Time Temp. Humidity Pressure Rain* Wind** Luminosity Snow
1788462982 19.44° C 71% 1021.3 hPa 0 mm - - -
1788462682 19.44° C 71% 1021.2 hPa 0 mm - - -
1788462382 19.44° C 70% 1021.1 hPa 0 mm - - -
1788462082 19.44° C 70% 1021.1 hPa 85.85 mm - - -
1788461783 20° C 68% 1021 hPa 0 mm - - -
1788461482 19.44° C 70% 1021 hPa 0 mm - - -
1788461182 19.44° C 71% 1020.8 hPa 0 mm - - -
1788460882 20° C 71% 1020.9 hPa 0 mm - - -
1788460582 20° C 70% 1020.9 hPa 0 mm - - -
1788460282 20° C 70% 1020.8 hPa 0 mm - - -
1788459983 20° C 69% 1020.7 hPa 0 mm - - -
1788459682 20° C 68% 1020.7 hPa 0 mm - - -
1788459391 20.56° C 68% 1020.8 hPa 0 mm - - -
1788459082 20.56° C 72% 1020.7 hPa 0 mm - - -
1788458782 20.56° C 72% 1020.6 hPa 0 mm - - -
1788458482 20.56° C 72% 1020.6 hPa 85.85 mm - - -
1788458182 21.11° C 70% 1020.6 hPa 0 mm - - -
1788457882 21.11° C 70% 1020.6 hPa 0 mm - - -
1788457582 21.11° C 70% 1020.6 hPa 0 mm - - -
1788457282 21.67° C 68% 1020.4 hPa 0 mm - - -
1788456982 21.67° C 68% 1020.4 hPa 0 mm - - -
1788456682 22.22° C 66% 1020.5 hPa 0 mm - - -
1788456406 22.22° C 65% 1020.4 hPa 0 mm - - -
1788456082 22.22° C 63% 1020.6 hPa 0 mm - - -
1788455782 22.78° C 58% 1020.5 hPa 0 mm - - -

* Rain latest hour (hover to see other rain measurements)
** Current wind speed in m/s (hover to see current wind gust speed)